Time;durP1;ratioP1;P1;durP2;ratioP2;P2;SDS_P1;SDS_P2;PMS_P1;PMS_P2;Temp;Humidity;BMP_temperature;BMP_pressure;BME280_temperature;BME280_humidity;BME280_pressure;Samples;Min_cycle;Max_cycle;Signal;HPM_P1;HPM_P2
2021/09/05 00:01:13;;;;;;;5.83;3.75;;;;;;;18.96;44.07;100810.91;2513181;77;25201;-79
2021/09/05 00:04:36;;;;;;;4.20;3.80;;;;;;;18.89;44.09;100808.73;2507647;78;25520;-80
2021/09/05 00:08:15;;;;;;;4.62;4.00;;;;;;;18.83;44.16;100808.75;2508735;78;25664;-80
2021/09/05 00:11:36;;;;;;;5.20;3.50;;;;;;;18.76;44.12;100819.78;2521097;78;25599;-84
2021/09/05 00:14:57;;;;;;;4.67;3.80;;;;;;;18.70;44.27;100815.83;2521858;78;31444;-79
2021/09/05 00:18:20;;;;;;;7.33;3.12;;;;;;;18.65;44.29;100814.95;2521787;78;25661;-79
2021/09/05 00:21:41;;;;;;;4.62;3.80;;;;;;;18.58;44.40;100823.32;2520888;78;25724;-79
2021/09/05 00:25:03;;;;;;;3.17;2.70;;;;;;;18.58;44.36;100821.13;2520537;78;31404;-79
2021/09/05 00:28:24;;;;;;;3.47;3.17;;;;;;;18.51;44.43;100820.70;2521225;78;25676;-79
2021/09/05 00:31:45;;;;;;;3.92;3.25;;;;;;;18.51;44.57;100825.55;2521835;78;30876;-79
2021/09/05 00:35:07;;;;;;;4.47;3.60;;;;;;;18.49;44.54;100833.02;2521798;78;25649;-80
2021/09/05 00:38:28;;;;;;;7.75;3.50;;;;;;;18.49;44.57;100831.70;2521641;78;25679;-85
2021/09/05 00:41:50;;;;;;;3.80;3.20;;;;;;;18.41;44.58;100830.41;2520192;78;25743;-80
2021/09/05 00:45:11;;;;;;;3.65;3.27;;;;;;;18.39;44.64;100834.78;2521636;78;25729;-79
2021/09/05 00:48:32;;;;;;;3.58;3.02;;;;;;;18.37;44.68;100834.81;2521687;78;26409;-79
2021/09/05 00:51:53;;;;;;;5.65;3.67;;;;;;;18.34;44.71;100836.58;2521769;78;30930;-80
2021/09/05 00:55:15;;;;;;;3.90;3.05;;;;;;;18.33;44.76;100841.42;2521174;78;25569;-79
2021/09/05 00:58:41;;;;;;;4.30;3.27;;;;;;;18.31;44.67;100844.05;2521264;78;25861;-79
2021/09/05 01:02:02;;;;;;;4.17;2.77;;;;;;;18.26;44.70;100845.83;2521150;78;25202;-80
2021/09/05 01:05:24;;;;;;;3.60;3.00;;;;;;;18.21;44.85;100851.53;2521664;78;25667;-80
2021/09/05 01:08:47;;;;;;;4.33;2.65;;;;;;;18.18;44.89;100853.72;2521305;78;25684;-79
2021/09/05 01:12:10;;;;;;;3.65;3.17;;;;;;;18.13;44.86;100845.39;2521310;78;25643;-79
2021/09/05 01:15:31;;;;;;;1.90;1.72;;;;;;;18.11;44.89;100849.77;2521685;78;25667;-80
2021/09/05 01:19:04;;;;;;;4.28;3.08;;;;;;;18.07;44.99;100850.66;2521097;78;25666;-79
2021/09/05 01:22:27;;;;;;;3.15;2.85;;;;;;;18.02;45.03;100853.30;2395163;81;25738;-82
2021/09/05 01:25:48;;;;;;;3.55;2.55;;;;;;;18.02;45.05;100856.35;2395887;82;30888;-80
2021/09/05 01:29:27;;;;;;;5.70;2.55;;;;;;;17.97;45.09;100855.04;2356455;83;25765;-80
2021/09/05 01:33:02;;;;;;;3.62;2.62;;;;;;;17.96;45.00;100861.66;2356614;83;25746;-80
2021/09/05 01:36:42;;;;;;;4.42;2.72;;;;;;;17.92;45.20;100862.96;2352586;82;26076;-81
2021/09/05 01:40:14;;;;;;;3.50;2.67;;;;;;;17.93;45.23;100872.62;2320371;84;25789;-83
2021/09/05 01:43:59;;;;;;;3.22;2.85;;;;;;;17.93;45.17;100871.75;2266338;87;25895;-78
2021/09/05 01:47:39;;;;;;;3.80;2.42;;;;;;;17.89;45.23;100872.19;2266301;86;26025;-78
2021/09/05 01:51:07;;;;;;;3.02;2.72;;;;;;;17.84;45.33;100875.69;2200991;89;25770;-80
2021/09/05 01:54:47;;;;;;;2.87;2.05;;;;;;;17.85;45.37;100882.71;2201196;89;26391;-81
2021/09/05 01:58:12;;;;;;;3.12;2.30;;;;;;;17.83;45.38;100886.68;2197009;89;25276;-78
2021/09/05 02:01:41;;;;;;;3.62;2.22;;;;;;;17.78;45.45;100884.45;2159042;91;25751;-78
2021/09/05 02:05:16;;;;;;;3.12;2.55;;;;;;;17.76;45.57;100891.50;2159077;91;25293;-79
2021/09/05 02:09:01;;;;;;;3.12;2.60;;;;;;;17.76;45.57;100897.19;2135188;92;25808;-79
2021/09/05 02:12:30;;;;;;;3.62;2.65;;;;;;;17.75;45.61;100898.95;2114525;91;25885;-79
2021/09/05 02:15:52;;;;;;;3.25;2.92;;;;;;;17.70;45.70;100904.19;2148987;88;25922;-78
2021/09/05 02:19:33;;;;;;;2.87;2.40;;;;;;;17.67;45.74;100901.98;2216577;88;25864;-78
2021/09/05 02:23:08;;;;;;;2.92;2.42;;;;;;;17.63;45.81;100907.69;2149760;91;25903;-78
2021/09/05 02:26:38;;;;;;;3.12;2.47;;;;;;;17.61;45.95;100919.98;2152871;90;44582;-78
2021/09/05 02:30:01;;;;;;;3.83;2.55;;;;;;;17.60;45.99;100910.76;2151363;92;25716;-78
2021/09/05 02:33:32;;;;;;;4.62;3.27;;;;;;;17.57;46.04;100914.70;2121156;93;25782;-80
2021/09/05 02:36:59;;;;;;;3.37;2.95;;;;;;;17.49;46.15;100908.09;2116997;91;25377;-80
2021/09/05 02:40:22;;;;;;;5.37;3.12;;;;;;;17.46;46.25;100907.63;2085078;91;25930;-78
2021/09/05 02:43:48;;;;;;;3.58;2.83;;;;;;;17.46;46.31;100914.66;2153365;91;25716;-78
2021/09/05 02:47:26;;;;;;;3.67;3.35;;;;;;;17.48;46.31;100919.48;2143932;92;25779;-84
2021/09/05 02:51:05;;;;;;;3.25;2.85;;;;;;;17.45;46.34;100923.45;2131164;92;25766;-78
2021/09/05 02:54:28;;;;;;;4.40;2.95;;;;;;;17.38;46.38;100926.50;2027360;97;25782;-79
2021/09/05 02:58:09;;;;;;;3.35;2.92;;;;;;;17.31;46.46;100928.64;2069895;91;25780;-79
2021/09/05 03:01:32;;;;;;;4.40;3.22;;;;;;;17.27;46.55;100934.77;2162242;90;25958;-78
2021/09/05 03:05:11;;;;;;;4.00;3.55;;;;;;;17.22;46.58;100929.49;2130784;92;25718;-79
2021/09/05 03:08:37;;;;;;;3.42;2.95;;;;;;;17.17;46.71;100926.38;2241556;82;25696;-79
2021/09/05 03:12:16;;;;;;;5.60;2.98;;;;;;;17.12;46.74;100932.08;2399716;81;25912;-86
2021/09/05 03:15:39;;;;;;;3.62;2.98;;;;;;;17.06;46.83;100930.27;2397796;82;25785;-82
2021/09/05 03:19:19;;;;;;;3.40;3.10;;;;;;;17.02;46.90;100932.45;2400313;81;25278;-85
2021/09/05 03:22:54;;;;;;;6.15;3.15;;;;;;;16.98;46.94;100939.45;2395296;82;25735;-79
2021/09/05 03:26:19;;;;;;;4.42;3.70;;;;;;;16.93;47.00;100941.17;2397090;81;25828;-79
2021/09/05 03:29:58;;;;;;;;;;;;;;;16.91;47.04;100940.30;2405833;78;25762;-79
2021/09/05 03:33:24;;;;;;;4.03;3.50;;;;;;;16.86;47.14;100940.69;2448493;80;25314;-78
2021/09/05 03:36:47;;;;;;;3.98;3.62;;;;;;;16.81;47.23;100940.20;2433319;78;25701;-79
2021/09/05 03:40:28;;;;;;;3.80;3.12;;;;;;;16.78;47.17;100943.71;2435187;81;25236;-79
2021/09/05 03:43:54;;;;;;;4.08;3.27;;;;;;;16.76;47.26;100948.08;2432324;80;25892;-84
2021/09/05 03:47:41;;;;;;;;;;;;;;;16.75;47.35;100951.59;2429317;81;25730;-79
2021/09/05 03:51:04;;;;;;;11.28;3.12;;;;;;;16.68;47.38;100953.70;2425807;80;26372;-80
2021/09/05 03:54:29;;;;;;;4.30;3.90;;;;;;;16.60;47.48;100949.66;2430143;81;25947;-86
2021/09/05 03:57:53;;;;;;;3.52;2.95;;;;;;;16.61;47.51;100954.08;2425434;80;25654;-79
2021/09/05 04:01:33;;;;;;;4.40;3.98;;;;;;;16.58;47.84;100970.28;2428954;80;25867;-81
2021/09/05 04:05:02;;;;;;;4.25;3.47;;;;;;;16.58;47.84;100970.28;2431974;79;26007;-81
2021/09/05 04:08:32;;;;;;;6.08;4.05;;;;;;;16.54;47.66;100973.33;2430734;81;25563;-79
2021/09/05 04:11:52;;;;;;;4.97;3.45;;;;;;;16.55;47.72;100976.40;2516952;78;25668;-78
2021/09/05 04:15:13;;;;;;;4.25;3.60;;;;;;;16.49;47.76;100976.34;2521576;78;30755;-77
2021/09/05 04:18:34;;;;;;;4.70;3.42;;;;;;;16.46;47.88;100980.26;2520633;77;25702;-86
2021/09/05 04:21:55;;;;;;;5.53;3.37;;;;;;;16.42;48.21;100989.00;2522188;78;30893;-77
2021/09/05 04:25:17;;;;;;;5.40;3.40;;;;;;;16.42;48.21;100989.00;2522011;78;30782;-79
2021/09/05 04:28:38;;;;;;;3.72;3.40;;;;;;;16.47;48.04;100994.77;2522039;78;25675;-83
2021/09/05 04:31:59;;;;;;;3.83;3.30;;;;;;;16.46;48.03;101002.19;2521774;76;31262;-85
2021/09/05 04:35:20;;;;;;;4.03;3.27;;;;;;;16.47;48.11;100999.16;2522104;78;31332;-79
2021/09/05 04:38:40;;;;;;;3.58;3.22;;;;;;;16.46;48.19;101004.82;2521875;78;30826;-78
2021/09/05 04:42:04;;;;;;;4.03;3.02;;;;;;;16.47;48.21;101004.42;2517706;78;25695;-78
2021/09/05 04:45:25;;;;;;;4.30;2.75;;;;;;;16.50;48.26;101009.27;2519969;78;25697;-84
2021/09/05 04:48:46;;;;;;;4.40;3.45;;;;;;;16.57;48.27;101013.25;2521971;78;30840;-85
2021/09/05 04:52:07;;;;;;;5.80;3.50;;;;;;;16.64;48.22;101015.10;2522334;76;25814;-77
2021/09/05 04:55:28;;;;;;;3.62;2.58;;;;;;;16.64;48.21;100998.87;2522003;78;25474;-77
2021/09/05 04:58:49;;;;;;;6.55;3.35;;;;;;;16.75;48.14;101018.73;2522269;76;25607;-79
2021/09/05 05:02:19;;;;;;;3.30;2.87;;;;;;;16.79;48.12;101024.91;2521806;78;30791;-78
2021/09/05 05:05:40;;;;;;;3.62;2.70;;;;;;;16.72;48.17;101023.94;2517615;76;26306;-84
2021/09/05 05:09:04;;;;;;;3.02;2.72;;;;;;;16.70;48.32;101030.92;2521706;78;25592;-77
2021/09/05 05:12:25;;;;;;;3.75;2.80;;;;;;;16.74;48.36;101028.79;2522277;77;25663;-82
2021/09/05 05:15:45;;;;;;;3.72;2.95;;;;;;;16.82;48.36;101035.03;2515941;78;31029;-77
2021/09/05 05:19:06;;;;;;;5.83;2.70;;;;;;;16.83;48.33;101032.83;2521794;78;25624;-78
2021/09/05 05:22:28;;;;;;;2.70;2.50;;;;;;;16.87;48.39;101033.30;2521750;76;25617;-77
2021/09/05 05:25:48;;;;;;;4.05;2.20;;;;;;;16.95;48.12;101038.21;2522364;78;30828;-77
2021/09/05 05:29:10;;;;;;;3.58;2.90;;;;;;;16.95;48.12;101038.21;2520855;76;25986;-77
2021/09/05 05:32:31;;;;;;;5.60;2.52;;;;;;;16.96;48.40;101043.92;2520179;78;25187;-77
2021/09/05 05:35:52;;;;;;;3.30;2.33;;;;;;;16.94;48.47;101044.36;2548392;75;25552;-76
2021/09/05 05:39:13;;;;;;;3.92;2.67;;;;;;;16.97;48.51;101054.02;2529009;76;25564;-79
2021/09/05 05:42:35;;;;;;;2.95;1.82;;;;;;;17.05;48.53;101047.07;2522558;78;31517;-81
2021/09/05 05:45:56;;;;;;;2.70;2.40;;;;;;;17.13;48.49;101052.39;2521529;78;25611;-78
2021/09/05 05:49:17;;;;;;;3.40;2.30;;;;;;;17.13;48.50;101053.27;2521836;77;25791;-78
2021/09/05 05:52:38;;;;;;;3.45;2.58;;;;;;;17.16;48.49;101057.69;2522142;78;25638;-79
2021/09/05 05:56:03;;;;;;;2.90;2.37;;;;;;;17.20;48.48;101054.19;2520540;76;25627;-78
2021/09/05 05:59:33;;;;;;;2.85;1.62;;;;;;;17.21;48.41;101062.12;2520116;78;25604;-79
2021/09/05 06:02:54;;;;;;;3.00;2.08;;;;;;;17.14;48.40;101058.97;2511924;76;25246;-79
2021/09/05 06:06:24;;;;;;;3.33;2.30;;;;;;;17.13;48.50;101062.93;2504939;76;25378;-79
2021/09/05 06:10:06;;;;;;;3.50;1.70;;;;;;;17.14;48.48;101068.63;2513702;78;25916;-79
2021/09/05 06:13:27;;;;;;;2.42;1.90;;;;;;;17.14;48.41;101064.69;2512514;76;25753;-82
2021/09/05 06:16:48;;;;;;;2.22;1.60;;;;;;;17.20;48.21;101082.73;2516844;78;31001;-84
2021/09/05 06:20:28;;;;;;;2.60;2.35;;;;;;;17.20;48.21;101082.73;2515494;78;25158;-79
2021/09/05 06:27:19;;;;;;;3.70;2.45;;;;;;;17.30;48.36;101082.38;2417032;81;25643;-79
2021/09/05 06:30:42;;;;;;;1.70;1.47;;;;;;;17.35;48.34;101094.30;2412530;81;25785;-79
2021/09/05 06:34:24;;;;;;;2.05;1.77;;;;;;;17.36;48.27;101090.34;2410194;81;25920;-78
2021/09/05 06:38:02;;;;;;;;;;;;;;;;;;;;;
2021/09/05 06:41:48;;;;;;;3.95;2.30;;;;;;;17.39;48.03;101093.00;2396777;81;25656;-85
2021/09/05 06:45:09;;;;;;;2.08;1.60;;;;;;;17.38;47.90;101094.28;2423234;81;25594;-79
2021/09/05 06:48:36;;;;;;;1.42;1.30;;;;;;;17.59;47.93;101098.84;2414334;81;25695;-77
2021/09/05 06:51:58;;;;;;;1.82;1.27;;;;;;;18.64;46.94;101104.59;2418036;80;25775;-76
2021/09/05 06:55:18;;;;;;;2.02;1.50;;;;;;;18.58;46.64;101107.20;2423082;81;31402;-80
2021/09/05 06:59:05;;;;;;;1.70;1.40;;;;;;;21.01;45.65;101118.58;2431331;80;25866;-92
2021/09/05 07:02:33;;;;;;;5.60;1.62;;;;;;;24.43;41.89;101117.22;2450570;79;25708;-84
2021/09/05 07:05:54;;;;;;;1.92;1.45;;;;;;;27.42;37.97;101132.52;2554895;75;25193;-83
2021/09/05 07:09:15;;;;;;;1.32;1.20;;;;;;;29.18;35.26;101147.81;2574546;76;25657;-78
2021/09/05 07:12:42;;;;;;;1.60;1.42;;;;;;;30.93;32.94;101154.29;2587734;76;26205;-77
2021/09/05 07:16:03;;;;;;;1.60;1.37;;;;;;;32.74;30.72;101166.39;2511319;77;25935;-82
2021/09/05 07:19:24;;;;;;;1.95;1.17;;;;;;;34.45;28.99;101180.05;2518424;77;26355;-80
2021/09/05 07:22:48;;;;;;;3.17;1.30;;;;;;;35.90;27.58;101180.33;2495269;78;26212;-83
2021/09/05 07:26:09;;;;;;;4.20;1.00;;;;;;;37.14;26.40;101181.37;2492416;78;25743;-81
2021/09/05 07:29:30;;;;;;;1.92;1.22;;;;;;;38.30;25.29;101194.57;2503035;78;26623;-81
2021/09/05 07:33:09;;;;;;;1.40;1.07;;;;;;;40.23;22.48;101209.24;2499440;76;26138;-79
2021/09/05 07:36:49;;;;;;;1.72;1.10;;;;;;;40.23;22.48;101209.24;2498673;78;26161;-82
2021/09/05 07:40:19;;;;;;;1.20;1.00;;;;;;;41.22;21.93;101217.12;2522109;76;26235;-83
2021/09/05 07:44:12;;;;;;;3.85;0.80;;;;;;;42.09;20.94;101216.22;2537821;75;25814;-82
2021/09/05 07:47:35;;;;;;;1.70;0.80;;;;;;;42.79;20.15;101222.14;2399584;80;26098;-82
2021/09/05 07:51:04;;;;;;;1.17;0.90;;;;;;;43.51;19.38;101229.14;2405745;79;25638;-81
2021/09/05 07:54:43;;;;;;;1.92;0.70;;;;;;;44.14;18.45;101233.56;2424284;80;25650;-81
2021/09/05 07:58:17;;;;;;;1.15;0.60;;;;;;;44.74;17.67;101244.57;2311797;84;25840;-82
2021/09/05 08:01:43;;;;;;;2.77;0.60;;;;;;;45.37;16.98;101248.19;2320726;83;25717;-84
2021/09/05 08:05:45;;;;;;;0.68;0.68;;;;;;;45.88;16.29;101248.93;2358771;81;25789;-81
2021/09/05 08:09:18;;;;;;;0.70;0.70;;;;;;;46.28;15.90;101254.05;2336338;83;25872;-81
2021/09/05 08:12:39;;;;;;;3.87;0.70;;;;;;;46.75;15.52;101250.45;2410117;82;25620;-82
2021/09/05 08:16:05;;;;;;;1.72;1.10;;;;;;;47.03;15.18;101256.34;2404100;82;25728;-85
2021/09/05 08:19:27;;;;;;;5.80;0.80;;;;;;;47.31;14.82;101258.05;2370709;82;25804;-80
2021/09/05 08:22:50;;;;;;;0.72;0.72;;;;;;;47.60;14.43;101262.01;2406185;79;25884;-81
2021/09/05 08:26:24;;;;;;;1.57;0.78;;;;;;;47.85;14.36;101263.19;2390324;82;25812;-83
2021/09/05 08:29:44;;;;;;;0.80;0.70;;;;;;;48.07;13.99;101260.90;2453565;78;25781;-84
2021/09/05 08:33:08;;;;;;;3.25;0.80;;;;;;;48.28;13.86;101268.47;2397214;81;25728;-83
2021/09/05 08:36:32;;;;;;;3.52;0.72;;;;;;;48.49;13.75;101266.34;2445343;79;25993;-87
2021/09/05 08:40:08;;;;;;;1.32;0.80;;;;;;;48.57;13.63;101266.26;2444881;79;25669;-83
2021/09/05 08:43:33;;;;;;;0.78;0.70;;;;;;;48.68;13.56;101264.37;2559927;75;26631;-82
2021/09/05 08:47:00;;;;;;;1.72;0.70;;;;;;;48.76;13.49;101267.55;2488610;77;25981;-81
2021/09/05 08:50:34;;;;;;;1.20;0.90;;;;;;;48.84;13.51;101270.75;2519566;76;26152;-81
2021/09/05 08:54:04;;;;;;;0.72;0.70;;;;;;;48.84;13.45;101264.72;2535282;76;25583;-81
2021/09/05 08:57:28;;;;;;;0.75;0.70;;;;;;;48.91;13.40;101268.42;2511721;77;26113;-82
2021/09/05 09:05:18;;;;;;;0.88;0.80;;;;;;;49.09;13.51;101271.28;2428053;78;26320;-87
2021/09/05 09:12:12;;;;;;;1.98;0.60;;;;;;;49.49;13.45;101273.95;2286914;83;25981;-87
2021/09/05 09:16:00;;;;;;;0.80;0.60;;;;;;;49.50;13.41;101267.34;2315913;85;25812;-86
2021/09/05 09:20:08;;;;;;;1.20;0.70;;;;;;;49.39;13.65;101265.13;2292149;84;25302;-86
2021/09/05 09:23:41;;;;;;;2.55;0.70;;;;;;;48.94;11.33;101261.61;2271185;85;25866;-84
2021/09/05 09:27:08;;;;;;;0.82;0.68;;;;;;;46.59;11.33;101251.86;2281419;85;26074;-84
2021/09/05 09:30:43;;;;;;;1.57;0.50;;;;;;;45.15;11.56;101240.58;2270152;84;26165;-86
2021/09/05 09:34:07;;;;;;;0.35;0.35;;;;;;;44.41;11.90;101235.28;2298993;81;26217;-87
2021/09/05 09:37:43;;;;;;;1.12;0.40;;;;;;;42.82;11.74;101233.33;2280888;84;25739;-86
2021/09/05 09:41:18;;;;;;;0.42;0.35;;;;;;;40.75;11.97;101225.57;2268570;83;25818;-85
2021/09/05 09:45:02;;;;;;;4.15;0.50;;;;;;;39.15;12.53;101219.40;2253799;85;26284;-86
2021/09/05 09:48:32;;;;;;;0.60;0.55;;;;;;;38.56;13.99;101208.34;2269961;83;25841;-87
2021/09/05 09:52:00;;;;;;;1.50;0.37;;;;;;;38.92;14.41;101209.94;2285977;85;25796;-88
2021/09/05 09:55:41;;;;;;;2.58;0.40;;;;;;;39.27;14.34;101210.73;2276545;85;26455;-84
2021/09/05 09:59:08;;;;;;;0.80;0.40;;;;;;;39.59;14.13;101214.31;2267059;85;26084;-86
2021/09/05 10:02:49;;;;;;;2.83;0.50;;;;;;;40.00;13.35;101209.87;2323055;83;25965;-86
2021/09/05 10:06:30;;;;;;;0.50;0.40;;;;;;;40.16;13.30;101211.27;2335460;83;25640;-87
2021/09/05 10:10:14;;;;;;;0.80;0.45;;;;;;;40.28;13.23;101200.12;2396891;82;25641;-86
2021/09/05 10:13:40;;;;;;;0.70;0.40;;;;;;;40.51;12.85;101202.16;2465323;79;25681;-86
2021/09/05 10:17:16;;;;;;;1.10;0.45;;;;;;;40.46;13.24;101201.69;2480652;79;25603;-86
2021/09/05 10:21:01;;;;;;;1.67;0.50;;;;;;;40.26;13.29;101203.48;2483626;79;25738;-86
2021/09/05 10:24:23;;;;;;;0.97;0.50;;;;;;;40.13;13.40;101200.07;2487424;79;25647;-86
2021/09/05 10:28:33;;;;;;;1.05;0.50;;;;;;;40.06;13.40;101196.16;2487253;79;25618;-85
2021/09/05 10:31:55;;;;;;;0.60;0.50;;;;;;;39.66;13.50;101201.86;2283271;84;25828;-87
2021/09/05 10:40:11;;;;;;;1.35;0.70;;;;;;;37.33;14.26;101199.39;2372122;79;25946;-86
2021/09/05 10:48:49;;;;;;;1.32;0.60;;;;;;;36.74;15.44;101194.69;2293870;79;26009;-88
2021/09/05 10:52:13;;;;;;;1.00;0.60;;;;;;;37.22;15.52;101191.16;2325460;82;26295;-86
2021/09/05 11:00:27;;;;;;;1.57;0.50;;;;;;;37.54;15.32;101196.40;2343802;83;26471;-85
2021/09/05 11:07:48;;;;;;;1.40;0.50;;;;;;;35.36;15.26;101191.27;2377474;81;25382;-88
2021/09/05 11:11:33;;;;;;;4.80;0.50;;;;;;;34.36;15.65;101182.87;2364840;82;25687;-90
2021/09/05 11:14:56;;;;;;;0.62;0.50;;;;;;;33.45;16.06;101182.59;2226270;88;25737;-90
2021/09/05 11:18:21;;;;;;;2.45;0.50;;;;;;;32.47;16.42;101182.31;2229710;87;25726;-85
2021/09/05 11:21:43;;;;;;;0.65;0.47;;;;;;;31.89;17.21;101188.97;2226464;88;26170;-86
2021/09/05 11:25:26;;;;;;;0.47;0.47;;;;;;;32.24;17.74;101188.06;2228616;87;25883;-88
2021/09/05 11:28:49;;;;;;;0.30;0.30;;;;;;;32.74;17.43;101188.44;2234640;87;25760;-87
2021/09/05 11:32:13;;;;;;;0.80;0.50;;;;;;;33.16;17.23;101187.86;2237582;88;25798;-88
2021/09/05 11:35:39;;;;;;;0.60;0.40;;;;;;;33.55;17.05;101177.91;2236935;87;25777;-88
2021/09/05 11:39:06;;;;;;;0.62;0.50;;;;;;;33.83;16.88;101181.64;2351327;82;25618;-88
2021/09/05 11:42:31;;;;;;;1.72;0.57;;;;;;;34.10;16.56;101184.99;2359251;83;25725;-89
2021/09/05 11:45:57;;;;;;;0.93;0.40;;;;;;;34.07;16.42;101191.45;2352158;83;25836;-90
2021/09/05 11:49:18;;;;;;;0.55;0.50;;;;;;;33.50;16.51;101184.55;2352755;83;25741;-87
2021/09/05 11:52:42;;;;;;;0.80;0.45;;;;;;;33.63;16.72;101182.85;2424675;79;26043;-87
2021/09/05 11:56:05;;;;;;;0.60;0.60;;;;;;;33.89;16.73;101188.03;2453602;78;25501;-88
2021/09/05 11:59:28;;;;;;;0.55;0.50;;;;;;;34.17;16.62;101186.34;2454410;79;25504;-87
2021/09/05 12:02:51;;;;;;;3.72;0.40;;;;;;;34.40;16.49;101190.31;2458735;79;25573;-88
2021/09/05 12:06:14;;;;;;;0.40;0.40;;;;;;;34.70;16.42;101192.92;2395868;81;25434;-85
2021/09/05 12:09:35;;;;;;;1.35;0.40;;;;;;;34.79;16.26;101185.04;2395960;81;25614;-87
2021/09/05 12:13:07;;;;;;;0.98;0.40;;;;;;;34.61;16.06;101178.61;2395841;82;25575;-88
2021/09/05 12:16:29;;;;;;;1.05;0.60;;;;;;;34.10;15.84;101179.09;2381696;81;26037;-88
2021/09/05 12:20:04;;;;;;;0.50;0.50;;;;;;;33.24;16.29;101173.41;2385119;82;25586;-85
2021/09/05 12:23:34;;;;;;;2.35;0.60;;;;;;;32.47;16.39;101163.86;2394353;81;25607;-84
2021/09/05 12:27:01;;;;;;;0.40;0.40;;;;;;;31.98;16.92;101165.56;2393841;81;25588;-88
2021/09/05 12:30:50;;;;;;;0.50;0.50;;;;;;;32.14;17.18;101164.27;2390684;82;25801;-89
2021/09/05 12:34:14;;;;;;;0.60;0.60;;;;;;;32.37;17.22;101158.10;2396468;82;25607;-83
2021/09/05 12:37:34;;;;;;;2.00;0.40;;;;;;;32.64;17.20;101162.47;2355398;81;25806;-87
2021/09/05 12:41:07;;;;;;;0.68;0.40;;;;;;;32.87;17.14;101157.08;2360972;82;25696;-87
2021/09/05 12:44:33;;;;;;;0.70;0.50;;;;;;;33.07;17.01;101151.91;2358846;81;25687;-85
2021/09/05 12:48:18;;;;;;;2.00;0.50;;;;;;;33.18;16.96;101153.97;2357061;81;25818;-86
2021/09/05 12:51:54;;;;;;;0.45;0.40;;;;;;;33.32;16.79;101148.65;2357986;82;25729;-85
2021/09/05 12:55:15;;;;;;;1.70;0.40;;;;;;;33.24;16.79;101146.86;2357962;82;25716;-85
2021/09/05 12:58:37;;;;;;;0.60;0.40;;;;;;;33.11;16.93;101149.44;2353688;81;25726;-85
2021/09/05 13:01:58;;;;;;;0.60;0.50;;;;;;;33.08;16.83;101150.97;2358251;82;25714;-84
2021/09/05 13:05:19;;;;;;;0.78;0.50;;;;;;;33.12;16.88;101153.88;2356195;82;25792;-86
2021/09/05 13:08:40;;;;;;;0.37;0.33;;;;;;;33.12;16.81;101158.80;2358600;81;25785;-85
2021/09/05 13:12:01;;;;;;;0.57;0.30;;;;;;;33.05;16.72;101156.55;2357645;83;25299;-85
2021/09/05 13:15:23;;;;;;;0.53;0.40;;;;;;;33.05;16.72;101156.55;2380810;81;25576;-84
2021/09/05 13:18:44;;;;;;;0.50;0.50;;;;;;;32.96;16.68;101148.48;2396286;81;25726;-84
2021/09/05 13:22:05;;;;;;;0.40;0.25;;;;;;;32.87;16.98;101150.33;2396162;81;25635;-85
2021/09/05 13:25:27;;;;;;;2.75;0.53;;;;;;;32.74;16.82;101154.23;2396055;81;25674;-85
2021/09/05 13:28:53;;;;;;;0.95;0.50;;;;;;;32.61;16.72;101149.14;2395887;82;25655;-85
2021/09/05 13:32:17;;;;;;;0.37;0.30;;;;;;;32.42;16.93;101142.54;2382653;81;26159;-85
2021/09/05 13:35:38;;;;;;;1.17;0.53;;;;;;;32.18;16.99;101147.44;2396277;81;25611;-87
2021/09/05 13:38:59;;;;;;;1.57;0.50;;;;;;;32.25;17.20;101144.79;2396146;81;25162;-87
2021/09/05 13:42:21;;;;;;;0.93;0.50;;;;;;;32.30;17.15;101146.77;2393315;81;25651;-87
2021/09/05 13:45:42;;;;;;;0.50;0.42;;;;;;;32.29;17.15;101145.01;2396119;82;25671;-85
2021/09/05 13:49:04;;;;;;;2.10;0.33;;;;;;;32.03;17.29;101141.06;2395953;81;25723;-88
2021/09/05 13:52:26;;;;;;;1.30;0.50;;;;;;;32.01;17.28;101147.48;2395838;81;25695;-84
2021/09/05 13:55:50;;;;;;;1.10;0.37;;;;;;;31.92;16.89;101144.79;2395759;81;25630;-85
2021/09/05 13:59:11;;;;;;;0.30;0.30;;;;;;;31.74;17.00;101146.13;2396123;81;25645;-87
2021/09/05 14:02:33;;;;;;;0.98;0.50;;;;;;;31.53;17.21;101141.87;2395868;82;25601;-84
2021/09/05 14:05:55;;;;;;;0.60;0.40;;;;;;;31.48;17.23;101142.58;2395858;82;25882;-86
2021/09/05 14:09:16;;;;;;;2.72;0.60;;;;;;;31.31;17.35;101142.55;2396288;81;25675;-87
2021/09/05 14:12:38;;;;;;;0.40;0.40;;;;;;;31.22;17.57;101140.73;2395875;81;25655;-86
2021/09/05 14:16:00;;;;;;;0.68;0.50;;;;;;;31.19;17.30;101148.09;2395879;81;25244;-84
2021/09/05 14:19:23;;;;;;;2.42;0.50;;;;;;;31.02;17.22;101147.11;2393757;81;26224;-87
2021/09/05 14:22:44;;;;;;;1.60;0.88;;;;;;;30.66;16.99;101140.32;2396261;81;25715;-85
2021/09/05 14:26:11;;;;;;;3.27;0.40;;;;;;;30.40;17.45;101142.90;2396302;82;25624;-89
2021/09/05 14:29:41;;;;;;;0.75;0.50;;;;;;;30.16;17.68;101141.33;2395270;82;26217;-85
2021/09/05 14:58:00;;;;;;;0.50;0.40;;;;;;;27.08;19.21;101112.67;2305675;83;25690;-86
2021/09/05 15:01:27;;;;;;;0.53;0.50;;;;;;;26.75;19.61;101123.55;2309363;85;25847;-88
2021/09/05 15:11:58;;;;;;;0.80;0.47;;;;;;;25.79;20.60;101109.00;2253834;87;25857;-87
2021/09/05 15:15:19;;;;;;;0.35;0.30;;;;;;;25.50;20.93;101112.45;2253725;86;26015;-89
2021/09/05 15:18:41;;;;;;;0.70;0.62;;;;;;;25.21;21.59;101114.06;2253669;86;25748;-87
2021/09/05 15:22:20;;;;;;;3.87;0.60;;;;;;;24.96;22.17;101114.65;2253575;86;25692;-89
2021/09/05 15:25:37;;;;;;;5.35;0.62;;;;;;;24.77;22.58;101113.79;2254053;86;25250;-84
2021/09/05 15:29:28;;;;;;;0.90;0.53;;;;;;;24.60;23.00;101109.72;2253751;87;25769;-87
2021/09/05 15:32:52;;;;;;;4.65;1.40;;;;;;;24.37;23.13;101110.69;2245722;87;25717;-86
2021/09/05 15:48:45;;;;;;;1.32;0.95;;;;;;;23.92;23.41;101116.05;2242727;85;25716;-90
2021/09/05 15:54:41;;;;;;;;;;;;;;;;;;;;;
2021/09/05 15:58:04;;;;;;;3.52;0.80;;;;;;;23.23;24.69;101107.52;2389924;81;25656;-84
2021/09/05 16:19:16;;;;;;;0.90;0.60;;;;;;;22.35;25.82;101111.93;2360796;82;25785;-92
2021/09/05 16:22:38;;;;;;;1.62;0.50;;;;;;;22.21;26.14;101116.55;2341493;82;25731;-90
2021/09/05 16:26:00;;;;;;;1.55;1.12;;;;;;;22.29;26.75;101114.66;2351387;83;25769;-91
2021/09/05 16:29:41;;;;;;;2.33;0.62;;;;;;;22.35;26.76;101118.58;2365772;83;25840;-78
2021/09/05 16:40:36;;;;;;;5.67;0.55;;;;;;;22.25;26.80;101120.05;2195180;87;25752;-79
2021/09/05 16:44:06;;;;;;;6.08;1.32;;;;;;;22.14;26.72;101119.70;2286904;85;25783;-88
2021/09/05 16:47:30;;;;;;;1.40;0.53;;;;;;;22.04;26.81;101124.70;2289682;85;25749;-86
2021/09/05 16:50:51;;;;;;;0.98;0.50;;;;;;;21.89;26.59;101128.84;2294289;85;25698;-86
2021/09/05 16:54:29;;;;;;;2.65;0.50;;;;;;;21.72;26.74;101132.13;2292263;85;25659;-91
2021/09/05 16:57:55;;;;;;;0.85;0.50;;;;;;;21.59;26.78;101129.59;2297130;84;25727;-92
2021/09/05 17:01:21;;;;;;;2.90;0.72;;;;;;;21.39;27.02;101125.79;2270117;85;25723;-85
2021/09/05 17:04:50;;;;;;;2.75;1.00;;;;;;;21.33;27.51;101128.49;2291414;84;25709;-87
2021/09/05 17:08:11;;;;;;;1.62;0.70;;;;;;;21.19;27.77;101131.68;2287063;85;26316;-88
2021/09/05 17:11:42;;;;;;;2.35;0.70;;;;;;;21.09;28.07;101141.93;2283540;85;26229;-88
2021/09/05 17:15:07;;;;;;;1.22;0.75;;;;;;;21.01;28.31;101145.97;2337775;82;25914;-88
2021/09/05 17:18:29;;;;;;;2.15;1.35;;;;;;;20.90;28.50;101148.70;2401759;80;25901;-87
2021/09/05 17:22:01;;;;;;;2.42;1.05;;;;;;;20.76;28.69;101147.91;2452952;80;25500;-89
2021/09/05 17:25:22;;;;;;;1.82;1.15;;;;;;;20.64;28.92;101148.85;2406845;78;25679;-88
2021/09/05 17:28:43;;;;;;;9.03;1.27;;;;;;;20.53;29.13;101150.69;2449635;78;25624;-90
2021/09/05 17:32:08;;;;;;;2.67;0.90;;;;;;;20.42;29.50;101157.78;2425517;80;25713;-89
2021/09/05 17:35:39;;;;;;;1.82;0.70;;;;;;;20.26;29.79;101152.98;2398973;80;25934;-88
2021/09/05 17:39:09;;;;;;;3.72;1.92;;;;;;;20.22;30.12;101157.86;2402764;80;25215;-87
2021/09/05 17:42:30;;;;;;;4.05;0.85;;;;;;;20.16;30.26;101163.17;2400606;80;25704;-90
2021/09/05 17:45:53;;;;;;;0.80;0.80;;;;;;;20.13;30.53;101162.73;2428699;79;26159;-87
2021/09/05 17:49:24;;;;;;;2.25;0.90;;;;;;;20.11;30.64;101173.76;2441579;78;25685;-90
2021/09/05 17:52:49;;;;;;;1.50;0.90;;;;;;;20.03;31.01;101167.62;2445256;79;25929;-87